Terminal Aerodrome Forecast
Issued by NWS

Home | Current Version | Previous Version | Text Only | Print | Product List | Glossary On
Versions: 1 2 3 4 5 6 7 8 9 10 11 12
000
FTUS44 KEPZ 281135
TAFLRU
TAF
KLRU 281135Z 2812/2912 03005KT P6SM FEW070 FEW250
     FM281600 09011KT P6SM SCT090 SCT250
     FM290300 16005KT P6SM FEW080=

USA.gov is the U.S. government's official web portal to all federal, state and local government web resources and services.